createdAt,value
2017-09-20T00:02:20.225Z,12.70
2017-09-20T00:04:48.533Z,13.03
2017-09-20T00:07:17.619Z,14.07
2017-09-20T00:09:46.727Z,14.70
2017-09-20T00:12:15.059Z,12.50
2017-09-20T00:14:43.359Z,13.50
2017-09-20T00:17:11.705Z,12.03
2017-09-20T00:19:40.033Z,14.00
2017-09-20T00:22:08.322Z,12.80
2017-09-20T00:24:36.661Z,13.90
2017-09-20T00:27:04.957Z,12.70
2017-09-20T00:29:34.063Z,13.50
2017-09-20T00:32:02.370Z,14.03
2017-09-20T00:34:31.450Z,14.93
2017-09-20T00:36:59.777Z,15.43
2017-09-20T00:39:28.072Z,15.23
2017-09-20T00:41:56.441Z,12.97
2017-09-20T00:44:24.862Z,15.13
2017-09-20T00:46:54.012Z,14.50
2017-09-20T00:49:22.341Z,16.93
2017-09-20T00:51:51.509Z,14.97
2017-09-20T00:54:19.870Z,13.80
2017-09-20T00:56:48.198Z,14.70
2017-09-20T00:59:16.505Z,13.60
2017-09-20T01:01:44.825Z,14.37
2017-09-20T01:04:13.130Z,13.53
2017-09-20T01:06:42.028Z,13.90
2017-09-20T01:09:10.805Z,14.10
2017-09-20T01:11:39.500Z,14.37
2017-09-20T01:14:08.221Z,15.67
2017-09-20T01:16:37.768Z,13.80
2017-09-20T01:19:06.123Z,12.60
2017-09-20T01:21:52.411Z,12.77
2017-09-20T01:24:20.747Z,13.90
2017-09-20T01:26:49.833Z,14.00
2017-09-20T01:29:18.156Z,13.00
2017-09-20T01:31:47.215Z,13.90
2017-09-20T01:34:16.293Z,14.70
2017-09-20T01:36:45.407Z,12.50
2017-09-20T01:39:13.735Z,13.50
2017-09-20T01:41:42.044Z,13.50
2017-09-20T01:44:10.341Z,13.43
2017-09-20T01:46:38.892Z,14.17
2017-09-20T01:49:07.280Z,13.93
2017-09-20T01:51:35.581Z,12.77
2017-09-20T01:54:04.006Z,14.20
2017-09-20T01:56:32.300Z,13.10
2017-09-20T01:59:00.634Z,15.03
2017-09-20T02:01:28.978Z,14.20
2017-09-20T02:03:57.589Z,15.20
2017-09-20T02:06:25.921Z,14.27
2017-09-20T02:08:54.216Z,13.80
2017-09-20T02:11:22.610Z,14.00
2017-09-20T02:13:51.143Z,15.27
2017-09-20T02:16:20.235Z,14.47
2017-09-20T02:18:48.555Z,15.70
2017-09-20T02:21:17.638Z,14.17
2017-09-20T02:23:45.964Z,13.87
2017-09-20T02:26:14.257Z,14.80
2017-09-20T02:28:42.557Z,13.47
2017-09-20T02:31:10.940Z,14.63
2017-09-20T02:33:40.043Z,14.87
2017-09-20T02:36:09.203Z,14.13
2017-09-20T02:38:37.498Z,14.20
2017-09-20T02:41:05.825Z,13.80
2017-09-20T02:43:34.117Z,13.77
2017-09-20T02:46:02.487Z,13.03
2017-09-20T02:48:30.778Z,14.13
2017-09-20T02:50:59.840Z,14.47
2017-09-20T02:53:28.928Z,16.10
2017-09-20T02:55:57.505Z,17.03
2017-09-20T02:58:25.866Z,16.47
2017-09-20T03:00:54.164Z,17.10
2017-09-20T03:03:22.581Z,17.77
2017-09-20T03:05:50.880Z,16.33
2017-09-20T03:08:19.937Z,16.57
2017-09-20T03:10:48.258Z,15.90
2017-09-20T03:13:16.554Z,17.40
2017-09-20T03:15:44.894Z,18.23
2017-09-20T03:18:13.959Z,19.97
2017-09-20T03:20:43.283Z,20.57
2017-09-20T03:23:11.602Z,16.27
2017-09-20T03:25:39.928Z,15.37
2017-09-20T03:28:08.215Z,15.23
2017-09-20T03:30:37.486Z,14.63
2017-09-20T03:33:05.828Z,14.20
2017-09-20T03:35:34.194Z,13.10
2017-09-20T03:38:02.493Z,17.40
2017-09-20T03:40:31.552Z,16.13
2017-09-20T03:43:00.657Z,17.23
2017-09-20T03:45:28.953Z,14.63
2017-09-20T03:47:57.317Z,16.07
2017-09-20T03:50:26.434Z,14.73
2017-09-20T03:52:54.792Z,18.13
2017-09-20T03:55:23.075Z,16.50
2017-09-20T03:57:51.396Z,16.80
2017-09-20T04:00:19.760Z,17.57
2017-09-20T04:02:48.049Z,17.77
2017-09-20T04:05:17.139Z,17.97
2017-09-20T04:07:45.466Z,15.60
2017-09-20T04:10:13.756Z,17.60
2017-09-20T04:12:42.052Z,16.30
2017-09-20T04:15:10.412Z,16.87
2017-09-20T04:17:38.708Z,18.43
2017-09-20T04:20:07.014Z,15.83
2017-09-20T04:22:35.343Z,17.33
2017-09-20T04:25:03.631Z,17.33
2017-09-20T04:27:32.001Z,18.10
2017-09-20T04:30:01.304Z,17.17
2017-09-20T04:32:29.593Z,17.97
2017-09-20T04:34:57.909Z,15.10
2017-09-20T04:37:26.210Z,15.00
2017-09-20T04:39:55.305Z,15.87
2017-09-20T04:42:23.602Z,18.00
2017-09-20T04:44:52.700Z,15.70
2017-09-20T04:47:21.012Z,16.90
2017-09-20T04:49:50.082Z,16.63
2017-09-20T04:52:19.160Z,18.67
2017-09-20T04:54:48.220Z,16.90
2017-09-20T04:57:16.549Z,18.10
2017-09-20T04:59:44.848Z,17.67
2017-09-20T05:02:13.934Z,19.53
2017-09-20T05:04:42.242Z,19.37
2017-09-20T05:07:10.566Z,18.67
2017-09-20T05:09:38.915Z,19.10
2017-09-20T05:12:07.363Z,17.83
2017-09-20T05:14:35.688Z,18.73
2017-09-20T05:17:04.016Z,19.70
2017-09-20T05:19:32.306Z,18.60
2017-09-20T05:22:00.936Z,15.63
2017-09-20T05:24:29.242Z,16.40
2017-09-20T05:26:57.624Z,17.67
2017-09-20T05:29:26.725Z,16.97
2017-09-20T05:31:55.042Z,17.20
2017-09-20T05:34:23.341Z,16.97
2017-09-20T05:36:51.721Z,16.90
2017-09-20T05:39:20.025Z,17.00
2017-09-20T05:41:48.321Z,20.37
2017-09-20T05:44:16.694Z,21.20
2017-09-20T05:46:44.990Z,18.87
2017-09-20T05:49:13.285Z,17.70
2017-09-20T05:51:41.608Z,18.27
2017-09-20T05:54:09.920Z,17.63
2017-09-20T05:56:38.988Z,18.27
2017-09-20T05:59:07.343Z,18.00
2017-09-20T06:01:35.655Z,18.07
2017-09-20T06:04:03.952Z,19.07
2017-09-20T06:06:32.278Z,18.40
2017-09-20T06:09:00.586Z,18.40
2017-09-20T06:11:28.917Z,18.20
2017-09-20T06:13:57.213Z,18.27
2017-09-20T06:16:25.535Z,18.40
2017-09-20T06:18:55.093Z,17.77
2017-09-20T06:21:23.413Z,17.53
2017-09-20T06:23:51.705Z,18.77
2017-09-20T06:26:20.079Z,18.97
2017-09-20T06:28:48.370Z,20.50
2017-09-20T06:31:17.455Z,17.70
2017-09-20T06:33:45.772Z,16.93
2017-09-20T06:36:14.102Z,18.53
2017-09-20T06:38:42.406Z,17.57
2017-09-20T06:41:11.489Z,18.67
2017-09-20T06:43:40.559Z,17.93
2017-09-20T06:46:09.673Z,20.50
2017-09-20T06:48:37.971Z,19.13
2017-09-20T06:51:07.046Z,20.27
2017-09-20T06:53:35.372Z,18.10
2017-09-20T06:56:03.681Z,19.43
2017-09-20T06:58:32.006Z,18.37
2017-09-20T07:01:00.322Z,16.50
2017-09-20T07:03:28.677Z,19.07
2017-09-20T07:05:56.973Z,19.57
2017-09-20T07:08:25.269Z,20.73
2017-09-20T07:10:53.604Z,22.97
2017-09-20T07:13:21.910Z,21.20
2017-09-20T07:15:50.289Z,20.73
2017-09-20T07:18:19.363Z,20.00
2017-09-20T07:20:48.445Z,19.17
2017-09-20T07:23:17.635Z,20.93
2017-09-20T07:25:45.937Z,21.43
2017-09-20T07:28:14.259Z,18.40
2017-09-20T07:30:42.557Z,21.27
2017-09-20T07:33:10.890Z,21.60
2017-09-20T07:35:39.189Z,21.57
2017-09-20T07:38:08.410Z,20.27
2017-09-20T07:40:36.735Z,22.40
2017-09-20T07:43:05.070Z,19.40
2017-09-20T07:45:33.407Z,19.80
2017-09-20T07:48:03.090Z,20.60
2017-09-20T07:50:31.399Z,20.87
2017-09-20T07:53:00.522Z,22.90
2017-09-20T07:55:28.829Z,20.97
2017-09-20T07:57:57.909Z,21.87
2017-09-20T08:00:27.210Z,21.00
2017-09-20T08:02:55.507Z,19.30
2017-09-20T08:05:25.385Z,19.13
2017-09-20T08:07:53.737Z,20.13
2017-09-20T08:10:22.051Z,19.93
2017-09-20T08:12:50.378Z,20.80
2017-09-20T08:15:19.439Z,18.50
2017-09-20T08:17:48.528Z,17.80
2017-09-20T08:20:17.612Z,19.87
2017-09-20T08:22:45.934Z,19.50
2017-09-20T08:25:14.416Z,20.50
2017-09-20T08:27:43.575Z,21.20
2017-09-20T08:30:11.903Z,19.97
2017-09-20T08:32:40.251Z,20.53
2017-09-20T08:35:08.663Z,21.37
2017-09-20T08:37:37.733Z,20.03
2017-09-20T08:40:07.196Z,20.50
2017-09-20T08:42:35.534Z,21.93
2017-09-20T08:45:03.834Z,20.07
2017-09-20T08:47:32.196Z,21.27
2017-09-20T08:50:00.536Z,19.43
2017-09-20T08:52:29.598Z,21.63
2017-09-20T08:54:58.724Z,20.73
2017-09-20T08:57:27.121Z,20.43
2017-09-20T08:59:57.013Z,20.83
2017-09-20T09:02:26.299Z,20.00
2017-09-20T09:04:55.649Z,20.27
2017-09-20T09:07:25.452Z,18.50
2017-09-20T09:09:55.136Z,17.80
2017-09-20T09:12:24.275Z,18.97
2017-09-20T09:14:52.582Z,19.57
2017-09-20T09:17:20.890Z,19.77
2017-09-20T09:19:49.302Z,19.93
2017-09-20T09:22:17.604Z,18.20
2017-09-20T09:24:45.917Z,19.77
2017-09-20T09:27:14.246Z,17.53
2017-09-20T09:29:43.306Z,17.97
2017-09-20T09:32:12.400Z,17.00
2017-09-20T09:34:40.733Z,18.93
2017-09-20T09:37:09.178Z,18.17
2017-09-20T09:39:37.555Z,18.30
2017-09-20T09:42:06.622Z,18.80
2017-09-20T09:44:35.722Z,16.97
2017-09-20T09:47:04.045Z,16.83
2017-09-20T09:49:33.144Z,17.50
2017-09-20T09:52:01.680Z,15.53
2017-09-20T09:54:30.869Z,15.80
2017-09-20T09:56:59.192Z,15.97
2017-09-20T09:59:27.558Z,15.73
2017-09-20T10:01:56.458Z,15.73
2017-09-20T10:04:25.302Z,16.53
2017-09-20T10:06:53.602Z,15.67
2017-09-20T10:09:21.926Z,15.60
2017-09-20T10:11:50.241Z,16.30
2017-09-20T10:14:18.541Z,15.60
2017-09-20T10:16:46.865Z,14.73
2017-09-20T10:19:15.929Z,14.60
2017-09-20T10:21:45.038Z,16.80
2017-09-20T10:24:13.329Z,15.40
2017-09-20T10:26:41.630Z,18.07
2017-09-20T10:29:09.959Z,17.30
2017-09-20T10:31:38.267Z,16.20
2017-09-20T10:34:06.601Z,16.17
2017-09-20T10:36:34.903Z,16.80
2017-09-20T10:39:03.225Z,14.87
2017-09-20T10:41:31.526Z,14.67
2017-09-20T10:43:59.883Z,14.93
2017-09-20T10:46:28.223Z,14.87
2017-09-20T10:48:57.150Z,14.63
2017-09-20T10:51:25.486Z,14.63
2017-09-20T10:53:53.794Z,13.40
2017-09-20T10:56:22.122Z,14.70
2017-09-20T10:58:50.448Z,14.33
2017-09-20T11:01:18.052Z,13.97
2017-09-20T11:03:46.351Z,15.27
2017-09-20T11:06:15.471Z,13.70
2017-09-20T11:08:43.785Z,13.10
2017-09-20T11:11:13.776Z,13.67
2017-09-20T11:13:42.850Z,14.10
2017-09-20T11:16:11.205Z,13.33
2017-09-20T11:18:40.273Z,11.90
2017-09-20T11:21:08.606Z,13.17
2017-09-20T11:23:37.702Z,11.90
2017-09-20T11:26:06.005Z,12.67
2017-09-20T11:28:34.347Z,12.40
2017-09-20T11:31:02.655Z,12.60
2017-09-20T11:33:30.961Z,12.47
2017-09-20T11:35:59.298Z,11.13
2017-09-20T11:38:27.606Z,12.90
2017-09-20T11:40:56.347Z,11.50
2017-09-20T11:43:24.758Z,12.70
2017-09-20T11:45:53.065Z,13.73
2017-09-20T11:48:21.377Z,11.83
2017-09-20T11:50:49.698Z,12.07
2017-09-20T11:53:18.761Z,12.20
2017-09-20T11:55:47.099Z,12.37
2017-09-20T11:58:15.426Z,14.10
2017-09-20T12:00:43.749Z,13.40
2017-09-20T12:03:12.102Z,12.60
2017-09-20T12:05:41.163Z,12.80
2017-09-20T12:08:10.262Z,19.90
2017-09-20T12:10:38.605Z,13.20
2017-09-20T12:13:06.917Z,14.80
2017-09-20T12:15:35.213Z,15.53
2017-09-20T12:18:04.122Z,12.90
2017-09-20T12:20:32.420Z,14.70
2017-09-20T12:23:01.486Z,14.23
2017-09-20T12:25:29.845Z,14.83
2017-09-20T12:27:58.137Z,16.20
2017-09-20T12:30:27.001Z,15.60
2017-09-20T12:32:55.296Z,17.17
2017-09-20T12:35:23.724Z,16.90
2017-09-20T12:37:52.026Z,17.67
2017-09-20T12:40:20.367Z,17.03
2017-09-20T12:42:48.668Z,18.03
2017-09-20T12:45:16.999Z,19.03
2017-09-20T12:47:45.290Z,17.17
2017-09-20T12:50:13.688Z,15.43
2017-09-20T12:52:42.041Z,13.57
2017-09-20T12:55:10.352Z,13.57
2017-09-20T12:57:38.656Z,8.70
2017-09-20T13:00:06.991Z,8.00
2017-09-20T13:02:35.295Z,9.20
2017-09-20T13:05:03.633Z,9.30
2017-09-20T13:07:32.652Z,10.10
2017-09-20T13:10:01.137Z,10.07
2017-09-20T13:12:29.512Z,11.60
2017-09-20T13:14:57.809Z,13.13
2017-09-20T13:17:26.145Z,10.87
2017-09-20T13:19:54.449Z,10.93
2017-09-20T13:22:22.898Z,10.10
2017-09-20T13:24:51.236Z,9.50
2017-09-20T13:27:19.538Z,9.73
2017-09-20T13:29:47.866Z,10.07
2017-09-20T13:32:16.178Z,10.43
2017-09-20T13:34:44.510Z,9.40
2017-09-20T13:37:12.812Z,10.03
2017-09-20T13:39:41.107Z,8.83
2017-09-20T13:42:09.439Z,10.23
2017-09-20T13:44:37.745Z,10.13
2017-09-20T13:47:06.075Z,10.00
2017-09-20T13:49:34.406Z,10.10
2017-09-20T13:52:03.426Z,10.37
2017-09-20T13:54:31.759Z,10.70
2017-09-20T13:57:01.696Z,11.70
2017-09-20T13:59:31.119Z,11.63
2017-09-20T14:01:59.423Z,10.90
2017-09-20T14:04:28.515Z,9.60
2017-09-20T14:06:56.844Z,12.30
2017-09-20T14:09:25.920Z,10.40
2017-09-20T14:11:54.280Z,11.50
2017-09-20T14:14:23.348Z,11.53
2017-09-20T14:16:51.691Z,11.57
2017-09-20T14:19:19.990Z,12.07
2017-09-20T14:21:48.289Z,12.97
2017-09-20T14:24:16.639Z,11.87
2017-09-20T14:26:44.997Z,12.33
2017-09-20T14:29:13.349Z,11.90
2017-09-20T14:31:41.677Z,12.40
2017-09-20T14:34:09.976Z,11.33
2017-09-20T14:36:38.327Z,11.63
2017-09-20T14:39:06.635Z,12.23
2017-09-20T14:41:35.739Z,11.70
2017-09-20T14:44:04.078Z,10.80
2017-09-20T14:46:32.493Z,11.50
2017-09-20T14:49:01.835Z,11.30
2017-09-20T14:51:30.182Z,11.00
2017-09-20T14:53:58.556Z,11.30
2017-09-20T14:56:26.862Z,11.10
2017-09-20T14:58:55.953Z,10.70
2017-09-20T15:01:24.259Z,10.50
2017-09-20T15:03:52.585Z,10.37
2017-09-20T15:06:20.876Z,9.70
2017-09-20T15:08:49.967Z,10.77
2017-09-20T15:11:18.287Z,9.20
2017-09-20T15:13:46.600Z,9.10
2017-09-20T15:16:14.928Z,9.20
2017-09-20T15:18:43.253Z,8.10
2017-09-20T15:21:11.625Z,10.63
2017-09-20T15:23:40.713Z,9.20
2017-09-20T15:26:09.034Z,8.90
2017-09-20T15:28:37.513Z,11.07
2017-09-20T15:31:05.821Z,13.50
2017-09-20T15:33:34.160Z,11.23
2017-09-20T15:36:02.474Z,10.93
2017-09-20T15:38:30.774Z,9.50
2017-09-20T15:40:59.105Z,9.57
2017-09-20T15:43:27.402Z,10.70
2017-09-20T15:45:56.496Z,10.03
2017-09-20T15:48:24.815Z,11.77
2017-09-20T15:50:53.929Z,11.27
2017-09-20T15:53:22.249Z,10.70
2017-09-20T15:55:51.356Z,12.17
2017-09-20T15:58:19.697Z,9.87
2017-09-20T16:00:48.007Z,12.00
2017-09-20T16:03:18.173Z,11.27
2017-09-20T16:05:46.481Z,21.93
2017-09-20T16:08:14.801Z,10.67
2017-09-20T16:10:43.922Z,6.70
2017-09-20T16:13:12.257Z,6.10
2017-09-20T16:15:40.649Z,6.80
2017-09-20T16:18:09.101Z,6.20
2017-09-20T16:20:37.438Z,4.97
2017-09-20T16:23:05.918Z,5.83
2017-09-20T16:25:34.218Z,5.37
2017-09-20T16:28:02.519Z,4.77
2017-09-20T16:30:30.849Z,5.07
2017-09-20T16:32:59.249Z,7.80
2017-09-20T16:35:27.566Z,5.43
2017-09-20T16:37:55.862Z,5.13
2017-09-20T16:40:24.971Z,5.03
2017-09-20T16:42:53.297Z,5.73
2017-09-20T16:45:21.621Z,4.80
2017-09-20T16:47:51.615Z,4.83
2017-09-20T16:50:20.833Z,5.50
2017-09-20T16:52:49.518Z,4.80
2017-09-20T16:55:17.828Z,4.80
2017-09-20T16:57:46.229Z,5.33
2017-09-20T17:00:14.626Z,5.83
2017-09-20T17:02:43.726Z,6.17
2017-09-20T17:05:12.033Z,5.93
2017-09-20T17:07:40.400Z,6.00
2017-09-20T17:10:09.505Z,6.20
2017-09-20T17:12:39.489Z,6.00
2017-09-20T17:15:07.836Z,6.63
2017-09-20T17:17:36.169Z,5.57
2017-09-20T17:20:04.504Z,6.83
2017-09-20T17:22:32.832Z,5.23
2017-09-20T17:25:01.160Z,6.20
2017-09-20T17:27:29.484Z,6.10
2017-09-20T17:29:57.785Z,6.10
2017-09-20T17:32:26.131Z,5.83
2017-09-20T17:34:54.462Z,7.10
2017-09-20T17:37:22.753Z,7.23
2017-09-20T17:39:51.073Z,6.37
2017-09-20T17:42:19.402Z,6.50
2017-09-20T17:44:47.702Z,6.13
2017-09-20T17:47:16.029Z,6.17
2017-09-20T17:49:44.386Z,5.50
2017-09-20T17:52:12.688Z,5.53
2017-09-20T17:54:41.046Z,4.93
2017-09-20T17:57:09.351Z,5.53
2017-09-20T17:59:37.682Z,7.30
2017-09-20T18:02:05.991Z,8.10
2017-09-20T18:04:34.325Z,7.50
2017-09-20T18:07:03.377Z,6.03
2017-09-20T18:09:31.670Z,6.00
2017-09-20T18:12:00.034Z,12.70
2017-09-20T18:14:28.395Z,6.73
2017-09-20T18:16:56.717Z,8.20
2017-09-20T18:19:25.013Z,10.03
2017-09-20T18:21:53.441Z,11.83
2017-09-20T18:24:21.744Z,8.63
2017-09-20T18:26:50.886Z,8.17
2017-09-20T18:29:19.740Z,8.07
2017-09-20T18:31:48.854Z,9.07
2017-09-20T18:34:17.196Z,9.77
2017-09-20T18:36:45.546Z,11.10
2017-09-20T18:39:13.849Z,12.00
2017-09-20T18:41:42.145Z,10.33
2017-09-20T18:44:10.752Z,8.30
2017-09-20T18:46:39.114Z,9.53
2017-09-20T18:49:08.322Z,9.57
2017-09-20T18:51:36.647Z,9.00
2017-09-20T18:54:05.048Z,12.97
2017-09-20T18:56:33.374Z,10.67
2017-09-20T18:59:01.717Z,11.13
2017-09-20T19:01:30.044Z,12.30
2017-09-20T19:03:59.109Z,12.37
2017-09-20T19:06:27.469Z,12.50
2017-09-20T19:08:55.802Z,12.03
2017-09-20T19:11:24.913Z,13.10
2017-09-20T19:13:53.255Z,11.77
2017-09-20T19:16:22.360Z,11.30
2017-09-20T19:18:51.618Z,12.57
2017-09-20T19:21:20.954Z,13.10
2017-09-20T19:23:49.257Z,13.50
2017-09-20T19:26:17.600Z,11.50
2017-09-20T19:28:45.920Z,12.63
2017-09-20T19:31:14.276Z,12.23
2017-09-20T19:33:42.559Z,11.43
2017-09-20T19:36:11.652Z,14.23
2017-09-20T19:38:39.965Z,13.00
2017-09-20T19:41:08.314Z,13.13
2017-09-20T19:43:36.616Z,12.83
2017-09-20T19:46:04.929Z,11.90
2017-09-20T19:48:33.343Z,12.30
2017-09-20T19:51:01.690Z,13.83
2017-09-20T19:53:30.046Z,11.90
2017-09-20T19:55:58.455Z,13.13
2017-09-20T19:58:26.825Z,13.03
2017-09-20T20:00:55.139Z,13.00
2017-09-20T20:03:23.442Z,11.60
2017-09-20T20:05:51.773Z,13.20
2017-09-20T20:08:20.897Z,12.20
2017-09-20T20:10:49.227Z,11.93
2017-09-20T20:13:17.539Z,12.90
2017-09-20T20:15:45.867Z,14.37
2017-09-20T20:18:14.186Z,12.30
2017-09-20T20:20:42.523Z,12.20
2017-09-20T20:23:10.817Z,11.57
2017-09-20T20:25:39.136Z,13.27
2017-09-20T20:28:08.332Z,11.23
2017-09-20T20:30:36.661Z,12.87
2017-09-20T20:33:05.729Z,11.63
2017-09-20T20:35:34.094Z,13.30
2017-09-20T20:38:03.198Z,11.67
2017-09-20T20:40:31.505Z,13.10
2017-09-20T20:42:59.849Z,12.03
2017-09-20T20:45:28.162Z,11.50
2017-09-20T20:47:56.457Z,12.50
2017-09-20T20:50:24.788Z,14.57
2017-09-20T20:52:53.101Z,14.63
2017-09-20T20:55:21.448Z,10.17
2017-09-20T20:57:49.749Z,11.33
2017-09-20T21:00:18.059Z,13.27
2017-09-20T21:02:46.399Z,13.07
2017-09-20T21:05:15.524Z,12.47
2017-09-20T21:07:44.640Z,12.17
2017-09-20T21:10:13.001Z,12.13
2017-09-20T21:12:41.302Z,12.57
2017-09-20T21:15:09.613Z,12.57
2017-09-20T21:17:37.945Z,14.20
2017-09-20T21:20:06.253Z,12.90
2017-09-20T21:22:34.588Z,13.33
2017-09-20T21:25:03.672Z,12.90
2017-09-20T21:27:31.977Z,13.07
2017-09-20T21:30:00.394Z,13.60
2017-09-20T21:32:28.696Z,13.13
2017-09-20T21:34:57.018Z,13.50
2017-09-20T21:37:25.361Z,11.80
2017-09-20T21:39:53.681Z,15.10
2017-09-20T21:42:21.981Z,14.47
2017-09-20T21:44:50.317Z,12.60
2017-09-20T21:47:19.382Z,12.80
2017-09-20T21:49:47.706Z,13.87
2017-09-20T21:52:16.038Z,12.50
2017-09-20T21:54:45.113Z,12.73
2017-09-20T21:57:13.446Z,14.83
2017-09-20T21:59:42.531Z,14.47
2017-09-20T22:02:11.021Z,14.17
2017-09-20T22:04:39.355Z,12.80
2017-09-20T22:07:07.666Z,12.53
2017-09-20T22:09:35.974Z,13.77
2017-09-20T22:12:04.307Z,13.37
2017-09-20T22:14:34.320Z,12.67
2017-09-20T22:17:20.266Z,13.43
2017-09-20T22:20:07.073Z,13.50
2017-09-20T22:22:53.453Z,13.03
2017-09-20T22:25:39.668Z,13.47
2017-09-20T22:28:08.023Z,12.17
2017-09-20T22:30:36.497Z,12.87
2017-09-20T22:33:04.862Z,13.17
2017-09-20T22:35:33.935Z,12.30
2017-09-20T22:38:02.278Z,12.20
2017-09-20T22:40:31.369Z,13.23
2017-09-20T22:42:59.672Z,11.57
2017-09-20T22:45:28.049Z,13.33
2017-09-20T22:47:56.363Z,12.50
2017-09-20T22:50:24.679Z,11.93
2017-09-20T22:52:53.017Z,13.27
2017-09-20T22:55:21.334Z,12.30
2017-09-20T22:57:49.684Z,13.70
2017-09-20T23:00:17.994Z,12.37
2017-09-20T23:02:46.289Z,13.23
2017-09-20T23:05:14.629Z,13.30
2017-09-20T23:07:42.936Z,12.60
2017-09-20T23:10:11.430Z,13.67
2017-09-20T23:12:40.538Z,12.57
2017-09-20T23:15:09.616Z,12.93
2017-09-20T23:17:37.950Z,13.70
2017-09-20T23:20:06.252Z,14.80
2017-09-20T23:22:34.585Z,13.27
2017-09-20T23:25:02.889Z,15.43
2017-09-20T23:27:31.194Z,13.10
2017-09-20T23:29:59.522Z,13.93
2017-09-20T23:32:27.834Z,14.80
2017-09-20T23:34:56.172Z,13.60
2017-09-20T23:37:25.382Z,13.77
2017-09-20T23:39:53.681Z,14.00
2017-09-20T23:42:22.019Z,15.40
2017-09-20T23:44:50.353Z,15.77
2017-09-20T23:47:18.696Z,14.03
2017-09-20T23:49:47.754Z,15.13
2017-09-20T23:52:16.097Z,14.80
2017-09-20T23:54:45.202Z,13.20
2017-09-20T23:57:13.525Z,13.83
2017-09-20T23:59:41.880Z,16.27
